sensor_id;sensor_type;location;lat;lon;timestamp;P1;durP1;ratioP1;P2;durP2;ratioP2
49592;SDS011;35499;51.482;4.264;2023-03-11T00:00:28;3.95;;;0.95;;
49592;SDS011;35499;51.482;4.264;2023-03-11T00:02:56;4.40;;;0.75;;
49592;SDS011;35499;51.482;4.264;2023-03-11T00:05:24;5.40;;;1.17;;
49592;SDS011;35499;51.482;4.264;2023-03-11T00:07:51;1.85;;;0.63;;
49592;SDS011;35499;51.482;4.264;2023-03-11T00:10:18;5.47;;;1.23;;
49592;SDS011;35499;51.482;4.264;2023-03-11T00:12:49;4.60;;;1.50;;
49592;SDS011;35499;51.482;4.264;2023-03-11T00:15:15;3.13;;;0.90;;
49592;SDS011;35499;51.482;4.264;2023-03-11T00:17:40;2.22;;;1.38;;
49592;SDS011;35499;51.482;4.264;2023-03-11T00:20:06;6.88;;;0.85;;
49592;SDS011;35499;51.482;4.264;2023-03-11T00:22:39;4.43;;;2.00;;
49592;SDS011;35499;51.482;4.264;2023-03-11T00:25:05;5.03;;;2.33;;
49592;SDS011;35499;51.482;4.264;2023-03-11T00:27:30;2.45;;;0.80;;
49592;SDS011;35499;51.482;4.264;2023-03-11T00:29:55;3.30;;;0.90;;
49592;SDS011;35499;51.482;4.264;2023-03-11T00:32:21;5.57;;;0.85;;
49592;SDS011;35499;51.482;4.264;2023-03-11T00:34:46;1.03;;;0.63;;
49592;SDS011;35499;51.482;4.264;2023-03-11T00:37:11;4.10;;;0.93;;
49592;SDS011;35499;51.482;4.264;2023-03-11T00:39:36;6.30;;;1.23;;
49592;SDS011;35499;51.482;4.264;2023-03-11T00:42:02;6.37;;;0.97;;
49592;SDS011;35499;51.482;4.264;2023-03-11T00:44:28;4.13;;;0.85;;
49592;SDS011;35499;51.482;4.264;2023-03-11T00:46:53;1.85;;;1.75;;
49592;SDS011;35499;51.482;4.264;2023-03-11T00:49:18;3.33;;;0.63;;
49592;SDS011;35499;51.482;4.264;2023-03-11T00:51:43;7.67;;;0.83;;
49592;SDS011;35499;51.482;4.264;2023-03-11T00:54:09;1.90;;;0.77;;
49592;SDS011;35499;51.482;4.264;2023-03-11T00:56:34;3.15;;;0.93;;
49592;SDS011;35499;51.482;4.264;2023-03-11T00:58:59;3.77;;;0.80;;
49592;SDS011;35499;51.482;4.264;2023-03-11T01:01:25;2.00;;;0.70;;
49592;SDS011;35499;51.482;4.264;2023-03-11T01:03:50;2.40;;;0.57;;
49592;SDS011;35499;51.482;4.264;2023-03-11T01:06:17;3.27;;;1.23;;
49592;SDS011;35499;51.482;4.264;2023-03-11T01:08:42;5.53;;;1.10;;
49592;SDS011;35499;51.482;4.264;2023-03-11T01:11:07;5.87;;;1.77;;
49592;SDS011;35499;51.482;4.264;2023-03-11T01:13:33;7.10;;;0.80;;
49592;SDS011;35499;51.482;4.264;2023-03-11T01:15:59;2.58;;;1.10;;
49592;SDS011;35499;51.482;4.264;2023-03-11T01:18:25;2.45;;;1.00;;
49592;SDS011;35499;51.482;4.264;2023-03-11T01:20:51;2.60;;;0.60;;
49592;SDS011;35499;51.482;4.264;2023-03-11T01:23:17;5.20;;;1.23;;
49592;SDS011;35499;51.482;4.264;2023-03-11T01:25:44;5.15;;;1.05;;
49592;SDS011;35499;51.482;4.264;2023-03-11T01:28:10;3.17;;;0.60;;
49592;SDS011;35499;51.482;4.264;2023-03-11T01:30:36;2.58;;;0.80;;
49592;SDS011;35499;51.482;4.264;2023-03-11T01:33:03;5.05;;;0.85;;
49592;SDS011;35499;51.482;4.264;2023-03-11T01:35:30;6.60;;;1.10;;
49592;SDS011;35499;51.482;4.264;2023-03-11T01:37:56;3.70;;;0.88;;
49592;SDS011;35499;51.482;4.264;2023-03-11T01:40:24;3.40;;;1.10;;
49592;SDS011;35499;51.482;4.264;2023-03-11T01:42:53;5.78;;;0.85;;
49592;SDS011;35499;51.482;4.264;2023-03-11T01:45:25;5.50;;;1.00;;
49592;SDS011;35499;51.482;4.264;2023-03-11T01:47:53;2.72;;;0.98;;
49592;SDS011;35499;51.482;4.264;2023-03-11T01:50:19;4.50;;;1.42;;
49592;SDS011;35499;51.482;4.264;2023-03-11T01:52:44;2.95;;;0.95;;
49592;SDS011;35499;51.482;4.264;2023-03-11T01:55:11;6.30;;;1.92;;
49592;SDS011;35499;51.482;4.264;2023-03-11T01:57:37;5.50;;;0.75;;
49592;SDS011;35499;51.482;4.264;2023-03-11T02:00:06;3.50;;;1.05;;
49592;SDS011;35499;51.482;4.264;2023-03-11T02:02:34;5.75;;;0.95;;
49592;SDS011;35499;51.482;4.264;2023-03-11T02:05:02;7.93;;;1.10;;
49592;SDS011;35499;51.482;4.264;2023-03-11T02:07:28;4.30;;;0.85;;
49592;SDS011;35499;51.482;4.264;2023-03-11T02:09:53;2.93;;;0.93;;
49592;SDS011;35499;51.482;4.264;2023-03-11T02:12:19;4.80;;;0.90;;
49592;SDS011;35499;51.482;4.264;2023-03-11T02:14:47;4.18;;;0.80;;
49592;SDS011;35499;51.482;4.264;2023-03-11T02:17:14;4.70;;;0.70;;
49592;SDS011;35499;51.482;4.264;2023-03-11T02:19:45;3.20;;;0.88;;
49592;SDS011;35499;51.482;4.264;2023-03-11T02:22:23;2.20;;;0.85;;
49592;SDS011;35499;51.482;4.264;2023-03-11T02:24:54;4.18;;;1.65;;
49592;SDS011;35499;51.482;4.264;2023-03-11T02:27:37;8.07;;;0.80;;
49592;SDS011;35499;51.482;4.264;2023-03-11T02:30:06;2.53;;;0.70;;
49592;SDS011;35499;51.482;4.264;2023-03-11T02:32:33;1.95;;;0.77;;
49592;SDS011;35499;51.482;4.264;2023-03-11T02:34:58;6.93;;;2.15;;
49592;SDS011;35499;51.482;4.264;2023-03-11T02:37:24;3.77;;;1.00;;
49592;SDS011;35499;51.482;4.264;2023-03-11T02:39:50;2.92;;;0.77;;
49592;SDS011;35499;51.482;4.264;2023-03-11T02:42:18;6.28;;;0.85;;
49592;SDS011;35499;51.482;4.264;2023-03-11T02:44:53;3.92;;;1.20;;
49592;SDS011;35499;51.482;4.264;2023-03-11T02:47:23;3.78;;;0.73;;
49592;SDS011;35499;51.482;4.264;2023-03-11T02:49:49;1.73;;;0.65;;
49592;SDS011;35499;51.482;4.264;2023-03-11T02:52:15;6.13;;;0.80;;
49592;SDS011;35499;51.482;4.264;2023-03-11T02:54:41;3.63;;;1.50;;
49592;SDS011;35499;51.482;4.264;2023-03-11T02:57:06;2.77;;;0.83;;
49592;SDS011;35499;51.482;4.264;2023-03-11T02:59:31;3.83;;;2.00;;
49592;SDS011;35499;51.482;4.264;2023-03-11T03:01:57;2.70;;;0.80;;
49592;SDS011;35499;51.482;4.264;2023-03-11T03:04:22;1.33;;;0.73;;
49592;SDS011;35499;51.482;4.264;2023-03-11T03:06:47;3.63;;;1.77;;
49592;SDS011;35499;51.482;4.264;2023-03-11T03:09:13;3.95;;;1.15;;
49592;SDS011;35499;51.482;4.264;2023-03-11T03:11:38;3.77;;;1.53;;
49592;SDS011;35499;51.482;4.264;2023-03-11T03:14:03;2.40;;;0.90;;
49592;SDS011;35499;51.482;4.264;2023-03-11T03:16:29;5.53;;;1.13;;
49592;SDS011;35499;51.482;4.264;2023-03-11T03:18:54;4.13;;;0.80;;
49592;SDS011;35499;51.482;4.264;2023-03-11T03:21:19;8.07;;;1.23;;
49592;SDS011;35499;51.482;4.264;2023-03-11T03:23:45;2.47;;;1.20;;
49592;SDS011;35499;51.482;4.264;2023-03-11T03:26:13;1.77;;;0.67;;
49592;SDS011;35499;51.482;4.264;2023-03-11T03:28:38;6.97;;;1.35;;
49592;SDS011;35499;51.482;4.264;2023-03-11T03:31:05;6.32;;;1.33;;
49592;SDS011;35499;51.482;4.264;2023-03-11T03:33:32;9.18;;;1.48;;
49592;SDS011;35499;51.482;4.264;2023-03-11T03:35:57;6.07;;;2.45;;
49592;SDS011;35499;51.482;4.264;2023-03-11T03:38:24;4.28;;;1.55;;
49592;SDS011;35499;51.482;4.264;2023-03-11T03:40:49;6.25;;;1.10;;
49592;SDS011;35499;51.482;4.264;2023-03-11T03:43:15;1.80;;;1.07;;
49592;SDS011;35499;51.482;4.264;2023-03-11T03:45:40;2.47;;;0.88;;
49592;SDS011;35499;51.482;4.264;2023-03-11T03:48:05;3.07;;;1.83;;
49592;SDS011;35499;51.482;4.264;2023-03-11T03:50:31;3.28;;;1.60;;
49592;SDS011;35499;51.482;4.264;2023-03-11T03:52:56;10.05;;;1.45;;
49592;SDS011;35499;51.482;4.264;2023-03-11T03:55:22;9.50;;;1.17;;
49592;SDS011;35499;51.482;4.264;2023-03-11T03:57:47;3.00;;;2.33;;
49592;SDS011;35499;51.482;4.264;2023-03-11T04:00:12;3.73;;;3.20;;
49592;SDS011;35499;51.482;4.264;2023-03-11T04:02:39;5.60;;;1.10;;
49592;SDS011;35499;51.482;4.264;2023-03-11T04:05:05;5.13;;;1.63;;
49592;SDS011;35499;51.482;4.264;2023-03-11T04:07:32;4.28;;;1.77;;
49592;SDS011;35499;51.482;4.264;2023-03-11T04:09:58;3.80;;;1.13;;
49592;SDS011;35499;51.482;4.264;2023-03-11T04:12:24;3.67;;;1.33;;
49592;SDS011;35499;51.482;4.264;2023-03-11T04:14:49;2.77;;;1.80;;
49592;SDS011;35499;51.482;4.264;2023-03-11T04:17:14;7.13;;;1.70;;
49592;SDS011;35499;51.482;4.264;2023-03-11T04:19:41;3.95;;;2.03;;
49592;SDS011;35499;51.482;4.264;2023-03-11T04:22:07;2.87;;;1.47;;
49592;SDS011;35499;51.482;4.264;2023-03-11T04:24:32;2.88;;;1.30;;
49592;SDS011;35499;51.482;4.264;2023-03-11T04:26:58;3.53;;;1.92;;
49592;SDS011;35499;51.482;4.264;2023-03-11T04:29:23;2.38;;;1.95;;
49592;SDS011;35499;51.482;4.264;2023-03-11T04:31:49;2.50;;;1.37;;
49592;SDS011;35499;51.482;4.264;2023-03-11T04:34:14;5.13;;;1.27;;
49592;SDS011;35499;51.482;4.264;2023-03-11T04:36:39;5.15;;;1.85;;
49592;SDS011;35499;51.482;4.264;2023-03-11T04:39:06;3.08;;;1.13;;
49592;SDS011;35499;51.482;4.264;2023-03-11T04:41:31;4.13;;;1.65;;
49592;SDS011;35499;51.482;4.264;2023-03-11T04:43:59;2.00;;;1.00;;
49592;SDS011;35499;51.482;4.264;2023-03-11T04:46:25;5.53;;;1.00;;
49592;SDS011;35499;51.482;4.264;2023-03-11T04:48:50;5.55;;;1.25;;
49592;SDS011;35499;51.482;4.264;2023-03-11T04:51:16;2.67;;;1.42;;
49592;SDS011;35499;51.482;4.264;2023-03-11T04:53:41;4.65;;;1.38;;
49592;SDS011;35499;51.482;4.264;2023-03-11T04:56:07;7.93;;;1.93;;
49592;SDS011;35499;51.482;4.264;2023-03-11T04:58:32;3.15;;;1.25;;
49592;SDS011;35499;51.482;4.264;2023-03-11T05:00:57;3.17;;;0.93;;
49592;SDS011;35499;51.482;4.264;2023-03-11T05:03:23;2.73;;;1.93;;
49592;SDS011;35499;51.482;4.264;2023-03-11T05:05:49;2.28;;;0.88;;
49592;SDS011;35499;51.482;4.264;2023-03-11T05:08:16;1.75;;;1.35;;
49592;SDS011;35499;51.482;4.264;2023-03-11T05:10:42;10.13;;;1.93;;
49592;SDS011;35499;51.482;4.264;2023-03-11T05:13:08;3.33;;;2.08;;
49592;SDS011;35499;51.482;4.264;2023-03-11T05:15:33;8.00;;;2.25;;
49592;SDS011;35499;51.482;4.264;2023-03-11T05:17:59;13.25;;;2.95;;
49592;SDS011;35499;51.482;4.264;2023-03-11T05:20:24;2.77;;;1.63;;
49592;SDS011;35499;51.482;4.264;2023-03-11T05:22:50;4.85;;;2.53;;
49592;SDS011;35499;51.482;4.264;2023-03-11T05:25:15;4.80;;;1.58;;
49592;SDS011;35499;51.482;4.264;2023-03-11T05:27:40;4.00;;;1.60;;
49592;SDS011;35499;51.482;4.264;2023-03-11T05:30:06;3.30;;;1.70;;
49592;SDS011;35499;51.482;4.264;2023-03-11T05:32:32;3.45;;;1.83;;
49592;SDS011;35499;51.482;4.264;2023-03-11T05:34:57;6.53;;;3.35;;
49592;SDS011;35499;51.482;4.264;2023-03-11T05:37:22;3.37;;;2.67;;
49592;SDS011;35499;51.482;4.264;2023-03-11T05:39:48;2.47;;;1.77;;
49592;SDS011;35499;51.482;4.264;2023-03-11T05:42:13;6.33;;;3.30;;
49592;SDS011;35499;51.482;4.264;2023-03-11T05:44:38;4.60;;;2.07;;
49592;SDS011;35499;51.482;4.264;2023-03-11T05:47:05;7.03;;;2.83;;
49592;SDS011;35499;51.482;4.264;2023-03-11T05:49:30;5.60;;;2.08;;
49592;SDS011;35499;51.482;4.264;2023-03-11T05:51:56;5.93;;;2.20;;
49592;SDS011;35499;51.482;4.264;2023-03-11T05:54:21;4.90;;;2.20;;
49592;SDS011;35499;51.482;4.264;2023-03-11T05:56:46;7.53;;;2.53;;
49592;SDS011;35499;51.482;4.264;2023-03-11T05:59:12;4.60;;;2.03;;
49592;SDS011;35499;51.482;4.264;2023-03-11T06:01:39;5.32;;;2.65;;
49592;SDS011;35499;51.482;4.264;2023-03-11T06:04:05;5.22;;;2.67;;
49592;SDS011;35499;51.482;4.264;2023-03-11T06:06:30;7.13;;;2.55;;
49592;SDS011;35499;51.482;4.264;2023-03-11T06:08:56;6.40;;;3.35;;
49592;SDS011;35499;51.482;4.264;2023-03-11T06:11:22;9.10;;;2.80;;
49592;SDS011;35499;51.482;4.264;2023-03-11T06:13:54;6.88;;;2.72;;
49592;SDS011;35499;51.482;4.264;2023-03-11T06:16:21;8.60;;;4.05;;
49592;SDS011;35499;51.482;4.264;2023-03-11T06:18:47;10.70;;;3.33;;
49592;SDS011;35499;51.482;4.264;2023-03-11T06:21:16;5.15;;;3.10;;
49592;SDS011;35499;51.482;4.264;2023-03-11T06:23:43;5.68;;;2.60;;
49592;SDS011;35499;51.482;4.264;2023-03-11T06:26:08;11.07;;;4.90;;
49592;SDS011;35499;51.482;4.264;2023-03-11T06:31:07;6.17;;;2.43;;
49592;SDS011;35499;51.482;4.264;2023-03-11T06:33:34;7.28;;;3.33;;
49592;SDS011;35499;51.482;4.264;2023-03-11T06:36:00;7.65;;;4.38;;
49592;SDS011;35499;51.482;4.264;2023-03-11T06:38:26;5.93;;;3.60;;
49592;SDS011;35499;51.482;4.264;2023-03-11T06:40:52;7.28;;;3.90;;
49592;SDS011;35499;51.482;4.264;2023-03-11T06:43:18;8.05;;;3.35;;
49592;SDS011;35499;51.482;4.264;2023-03-11T06:45:43;11.18;;;4.50;;
49592;SDS011;35499;51.482;4.264;2023-03-11T06:48:08;11.80;;;4.60;;
49592;SDS011;35499;51.482;4.264;2023-03-11T06:50:34;8.93;;;5.38;;
49592;SDS011;35499;51.482;4.264;2023-03-11T06:52:59;5.97;;;3.20;;
49592;SDS011;35499;51.482;4.264;2023-03-11T06:55:25;12.30;;;4.55;;
49592;SDS011;35499;51.482;4.264;2023-03-11T06:57:51;14.90;;;6.30;;
49592;SDS011;35499;51.482;4.264;2023-03-11T07:00:16;10.20;;;4.43;;
49592;SDS011;35499;51.482;4.264;2023-03-11T07:02:42;7.45;;;5.43;;
49592;SDS011;35499;51.482;4.264;2023-03-11T07:05:07;10.00;;;5.22;;
49592;SDS011;35499;51.482;4.264;2023-03-11T07:07:33;11.50;;;4.78;;
49592;SDS011;35499;51.482;4.264;2023-03-11T07:09:59;9.48;;;4.85;;
49592;SDS011;35499;51.482;4.264;2023-03-11T07:12:24;8.18;;;4.55;;
49592;SDS011;35499;51.482;4.264;2023-03-11T07:14:56;9.30;;;4.93;;
49592;SDS011;35499;51.482;4.264;2023-03-11T07:17:23;17.67;;;7.07;;
49592;SDS011;35499;51.482;4.264;2023-03-11T07:19:49;32.63;;;9.40;;
49592;SDS011;35499;51.482;4.264;2023-03-11T07:22:14;25.80;;;10.80;;
49592;SDS011;35499;51.482;4.264;2023-03-11T07:24:40;67.57;;;16.47;;
49592;SDS011;35499;51.482;4.264;2023-03-11T07:27:05;12.70;;;6.97;;
49592;SDS011;35499;51.482;4.264;2023-03-11T07:29:31;13.35;;;4.93;;
49592;SDS011;35499;51.482;4.264;2023-03-11T07:31:56;5.10;;;3.20;;
49592;SDS011;35499;51.482;4.264;2023-03-11T07:34:22;6.83;;;4.27;;
49592;SDS011;35499;51.482;4.264;2023-03-11T07:36:47;8.77;;;3.80;;
49592;SDS011;35499;51.482;4.264;2023-03-11T07:39:14;6.30;;;2.28;;
49592;SDS011;35499;51.482;4.264;2023-03-11T07:41:40;5.10;;;2.00;;
49592;SDS011;35499;51.482;4.264;2023-03-11T07:44:06;3.83;;;1.50;;
49592;SDS011;35499;51.482;4.264;2023-03-11T07:46:31;6.17;;;1.77;;
49592;SDS011;35499;51.482;4.264;2023-03-11T07:48:57;3.90;;;2.63;;
49592;SDS011;35499;51.482;4.264;2023-03-11T07:51:23;4.68;;;1.75;;
49592;SDS011;35499;51.482;4.264;2023-03-11T07:53:51;5.60;;;2.03;;
49592;SDS011;35499;51.482;4.264;2023-03-11T07:56:17;4.25;;;2.70;;
49592;SDS011;35499;51.482;4.264;2023-03-11T07:58:46;4.40;;;1.40;;
49592;SDS011;35499;51.482;4.264;2023-03-11T08:01:13;4.35;;;1.80;;
49592;SDS011;35499;51.482;4.264;2023-03-11T08:03:40;4.45;;;1.33;;
49592;SDS011;35499;51.482;4.264;2023-03-11T08:06:12;3.67;;;1.60;;
49592;SDS011;35499;51.482;4.264;2023-03-11T08:08:39;4.75;;;1.77;;
49592;SDS011;35499;51.482;4.264;2023-03-11T08:11:04;6.22;;;1.50;;
49592;SDS011;35499;51.482;4.264;2023-03-11T08:13:31;5.63;;;1.65;;
49592;SDS011;35499;51.482;4.264;2023-03-11T08:15:56;2.95;;;0.98;;
49592;SDS011;35499;51.482;4.264;2023-03-11T08:18:22;4.80;;;1.20;;
49592;SDS011;35499;51.482;4.264;2023-03-11T08:20:47;4.37;;;1.60;;
49592;SDS011;35499;51.482;4.264;2023-03-11T08:23:12;7.17;;;1.10;;
49592;SDS011;35499;51.482;4.264;2023-03-11T08:25:39;5.70;;;1.30;;
49592;SDS011;35499;51.482;4.264;2023-03-11T08:28:05;2.88;;;1.10;;
49592;SDS011;35499;51.482;4.264;2023-03-11T08:32:57;4.25;;;1.00;;
49592;SDS011;35499;51.482;4.264;2023-03-11T08:35:22;4.63;;;0.90;;
49592;SDS011;35499;51.482;4.264;2023-03-11T08:37:48;3.05;;;0.60;;
49592;SDS011;35499;51.482;4.264;2023-03-11T08:40:13;3.38;;;0.70;;
49592;SDS011;35499;51.482;4.264;2023-03-11T08:42:38;3.40;;;0.40;;
49592;SDS011;35499;51.482;4.264;2023-03-11T08:45:04;2.28;;;0.80;;
49592;SDS011;35499;51.482;4.264;2023-03-11T08:47:32;5.03;;;0.90;;
49592;SDS011;35499;51.482;4.264;2023-03-11T08:50:00;3.95;;;0.77;;
49592;SDS011;35499;51.482;4.264;2023-03-11T08:52:25;3.20;;;0.82;;
49592;SDS011;35499;51.482;4.264;2023-03-11T08:54:50;6.10;;;1.03;;
49592;SDS011;35499;51.482;4.264;2023-03-11T08:57:16;4.47;;;0.97;;
49592;SDS011;35499;51.482;4.264;2023-03-11T08:59:41;3.92;;;0.80;;
49592;SDS011;35499;51.482;4.264;2023-03-11T09:02:08;2.93;;;1.07;;
49592;SDS011;35499;51.482;4.264;2023-03-11T09:04:34;3.55;;;0.95;;
49592;SDS011;35499;51.482;4.264;2023-03-11T09:06:59;3.43;;;0.67;;
49592;SDS011;35499;51.482;4.264;2023-03-11T09:09:25;5.83;;;0.87;;
49592;SDS011;35499;51.482;4.264;2023-03-11T09:11:50;4.38;;;0.65;;
49592;SDS011;35499;51.482;4.264;2023-03-11T09:14:15;4.68;;;1.55;;
49592;SDS011;35499;51.482;4.264;2023-03-11T09:16:41;3.77;;;0.87;;
49592;SDS011;35499;51.482;4.264;2023-03-11T09:19:06;3.53;;;0.50;;
49592;SDS011;35499;51.482;4.264;2023-03-11T09:21:32;6.43;;;1.23;;
49592;SDS011;35499;51.482;4.264;2023-03-11T09:23:58;3.50;;;1.05;;
49592;SDS011;35499;51.482;4.264;2023-03-11T09:26:24;2.90;;;0.40;;
49592;SDS011;35499;51.482;4.264;2023-03-11T09:28:49;3.80;;;1.00;;
49592;SDS011;35499;51.482;4.264;2023-03-11T09:31:15;2.47;;;0.60;;
49592;SDS011;35499;51.482;4.264;2023-03-11T09:33:41;4.03;;;0.70;;
49592;SDS011;35499;51.482;4.264;2023-03-11T09:36:06;6.35;;;0.90;;
49592;SDS011;35499;51.482;4.264;2023-03-11T09:38:35;3.25;;;1.08;;
49592;SDS011;35499;51.482;4.264;2023-03-11T09:41:01;1.93;;;0.67;;
49592;SDS011;35499;51.482;4.264;2023-03-11T09:52:11;5.63;;;1.00;;
49592;SDS011;35499;51.482;4.264;2023-03-11T09:54:41;4.03;;;1.02;;
49592;SDS011;35499;51.482;4.264;2023-03-11T09:57:13;3.63;;;0.77;;
49592;SDS011;35499;51.482;4.264;2023-03-11T09:59:42;2.50;;;0.52;;
49592;SDS011;35499;51.482;4.264;2023-03-11T10:07:24;3.15;;;0.43;;
49592;SDS011;35499;51.482;4.264;2023-03-11T10:09:56;5.57;;;0.60;;
49592;SDS011;35499;51.482;4.264;2023-03-11T10:21:19;2.55;;;0.52;;
49592;SDS011;35499;51.482;4.264;2023-03-11T10:26:42;4.40;;;0.35;;
49592;SDS011;35499;51.482;4.264;2023-03-11T10:29:27;2.55;;;0.50;;
49592;SDS011;35499;51.482;4.264;2023-03-11T10:31:59;3.67;;;0.57;;
49592;SDS011;35499;51.482;4.264;2023-03-11T10:39:53;2.03;;;0.55;;
49592;SDS011;35499;51.482;4.264;2023-03-11T10:42:23;2.70;;;0.63;;
49592;SDS011;35499;51.482;4.264;2023-03-11T10:44:52;1.77;;;0.57;;
49592;SDS011;35499;51.482;4.264;2023-03-11T10:47:19;2.85;;;0.30;;
49592;SDS011;35499;51.482;4.264;2023-03-11T10:49:47;4.47;;;0.40;;
49592;SDS011;35499;51.482;4.264;2023-03-11T10:52:12;1.58;;;0.30;;
49592;SDS011;35499;51.482;4.264;2023-03-11T10:54:45;2.67;;;0.70;;
49592;SDS011;35499;51.482;4.264;2023-03-11T10:57:20;4.50;;;0.57;;
49592;SDS011;35499;51.482;4.264;2023-03-11T11:02:29;4.10;;;0.43;;
49592;SDS011;35499;51.482;4.264;2023-03-11T11:07:45;3.90;;;0.70;;
49592;SDS011;35499;51.482;4.264;2023-03-11T11:10:19;2.72;;;0.30;;
49592;SDS011;35499;51.482;4.264;2023-03-11T11:12:50;3.80;;;0.45;;
49592;SDS011;35499;51.482;4.264;2023-03-11T11:15:36;3.25;;;0.70;;
49592;SDS011;35499;51.482;4.264;2023-03-11T11:18:20;3.45;;;0.50;;
49592;SDS011;35499;51.482;4.264;2023-03-11T11:25:56;2.75;;;0.35;;
49592;SDS011;35499;51.482;4.264;2023-03-11T11:35:52;3.22;;;0.43;;
49592;SDS011;35499;51.482;4.264;2023-03-11T11:38:23;1.27;;;0.30;;
49592;SDS011;35499;51.482;4.264;2023-03-11T11:40:52;6.28;;;0.57;;
49592;SDS011;35499;51.482;4.264;2023-03-11T11:43:22;1.65;;;0.40;;
49592;SDS011;35499;51.482;4.264;2023-03-11T11:45:55;3.78;;;0.40;;
49592;SDS011;35499;51.482;4.264;2023-03-11T11:48:28;3.03;;;0.47;;
49592;SDS011;35499;51.482;4.264;2023-03-11T11:51:07;2.72;;;0.50;;
49592;SDS011;35499;51.482;4.264;2023-03-11T11:54:23;2.03;;;0.30;;
49592;SDS011;35499;51.482;4.264;2023-03-11T11:56:48;2.72;;;0.30;;
49592;SDS011;35499;51.482;4.264;2023-03-11T11:59:17;2.00;;;0.25;;
49592;SDS011;35499;51.482;4.264;2023-03-11T12:08:13;2.17;;;0.28;;
49592;SDS011;35499;51.482;4.264;2023-03-11T12:10:46;5.00;;;0.60;;
49592;SDS011;35499;51.482;4.264;2023-03-11T12:18:49;2.80;;;0.47;;
49592;SDS011;35499;51.482;4.264;2023-03-11T12:27:00;2.17;;;0.45;;
49592;SDS011;35499;51.482;4.264;2023-03-11T12:29:31;2.70;;;0.52;;
49592;SDS011;35499;51.482;4.264;2023-03-11T12:31:59;3.85;;;0.73;;
49592;SDS011;35499;51.482;4.264;2023-03-11T12:34:26;3.50;;;0.52;;
49592;SDS011;35499;51.482;4.264;2023-03-11T12:36:53;3.53;;;0.65;;
49592;SDS011;35499;51.482;4.264;2023-03-11T12:39:30;2.78;;;0.63;;
49592;SDS011;35499;51.482;4.264;2023-03-11T12:44:35;1.50;;;0.20;;
49592;SDS011;35499;51.482;4.264;2023-03-11T12:47:12;7.18;;;0.50;;
49592;SDS011;35499;51.482;4.264;2023-03-11T12:49:42;2.45;;;0.32;;
49592;SDS011;35499;51.482;4.264;2023-03-11T12:54:36;3.83;;;0.40;;
49592;SDS011;35499;51.482;4.264;2023-03-11T12:57:21;5.32;;;0.40;;
49592;SDS011;35499;51.482;4.264;2023-03-11T13:00:00;2.22;;;0.50;;
49592;SDS011;35499;51.482;4.264;2023-03-11T13:08:18;5.88;;;0.50;;
49592;SDS011;35499;51.482;4.264;2023-03-11T13:10:53;3.53;;;0.73;;
49592;SDS011;35499;51.482;4.264;2023-03-11T13:13:30;2.58;;;0.43;;
49592;SDS011;35499;51.482;4.264;2023-03-11T13:16:34;1.98;;;0.38;;
49592;SDS011;35499;51.482;4.264;2023-03-11T13:18:47;2.50;;;0.40;;
49592;SDS011;35499;51.482;4.264;2023-03-11T13:35:09;2.28;;;0.40;;
49592;SDS011;35499;51.482;4.264;2023-03-11T13:37:43;2.55;;;0.43;;
49592;SDS011;35499;51.482;4.264;2023-03-11T13:43:10;2.38;;;0.32;;
49592;SDS011;35499;51.482;4.264;2023-03-11T13:45:41;1.83;;;0.30;;
49592;SDS011;35499;51.482;4.264;2023-03-11T13:50:44;4.73;;;0.47;;
49592;SDS011;35499;51.482;4.264;2023-03-11T13:53:15;3.22;;;0.63;;
49592;SDS011;35499;51.482;4.264;2023-03-11T13:55:45;3.60;;;0.50;;
49592;SDS011;35499;51.482;4.264;2023-03-11T13:58:15;2.92;;;0.40;;
49592;SDS011;35499;51.482;4.264;2023-03-11T14:00:51;2.97;;;0.85;;
49592;SDS011;35499;51.482;4.264;2023-03-11T14:03:18;3.25;;;0.50;;
49592;SDS011;35499;51.482;4.264;2023-03-11T14:05:47;1.70;;;0.30;;
49592;SDS011;35499;51.482;4.264;2023-03-11T14:10:57;2.78;;;0.32;;
49592;SDS011;35499;51.482;4.264;2023-03-11T14:13:24;5.75;;;0.50;;
49592;SDS011;35499;51.482;4.264;2023-03-11T14:19:05;3.38;;;0.70;;
49592;SDS011;35499;51.482;4.264;2023-03-11T14:21:45;1.92;;;0.38;;
49592;SDS011;35499;51.482;4.264;2023-03-11T14:24:15;3.40;;;0.40;;
49592;SDS011;35499;51.482;4.264;2023-03-11T14:26:42;2.97;;;0.47;;
49592;SDS011;35499;51.482;4.264;2023-03-11T14:29:10;2.40;;;0.32;;
49592;SDS011;35499;51.482;4.264;2023-03-11T14:31:42;1.88;;;0.73;;
49592;SDS011;35499;51.482;4.264;2023-03-11T14:36:41;1.47;;;0.30;;
49592;SDS011;35499;51.482;4.264;2023-03-11T14:44:25;2.35;;;0.43;;
49592;SDS011;35499;51.482;4.264;2023-03-11T14:46:53;5.13;;;1.13;;
49592;SDS011;35499;51.482;4.264;2023-03-11T14:49:26;2.60;;;0.30;;
49592;SDS011;35499;51.482;4.264;2023-03-11T14:52:02;2.15;;;0.57;;
49592;SDS011;35499;51.482;4.264;2023-03-11T14:54:32;4.55;;;0.50;;
49592;SDS011;35499;51.482;4.264;2023-03-11T14:57:03;2.95;;;0.50;;
49592;SDS011;35499;51.482;4.264;2023-03-11T14:59:32;2.50;;;0.52;;
49592;SDS011;35499;51.482;4.264;2023-03-11T15:02:05;3.38;;;0.60;;
49592;SDS011;35499;51.482;4.264;2023-03-11T15:04:51;4.68;;;0.45;;
49592;SDS011;35499;51.482;4.264;2023-03-11T15:07:18;3.75;;;0.50;;
49592;SDS011;35499;51.482;4.264;2023-03-11T15:09:44;2.53;;;0.60;;
49592;SDS011;35499;51.482;4.264;2023-03-11T15:14:57;4.82;;;0.52;;
49592;SDS011;35499;51.482;4.264;2023-03-11T15:17:24;2.15;;;0.63;;
49592;SDS011;35499;51.482;4.264;2023-03-11T15:19:52;6.10;;;0.80;;
49592;SDS011;35499;51.482;4.264;2023-03-11T15:24:50;5.00;;;0.70;;
49592;SDS011;35499;51.482;4.264;2023-03-11T15:37:31;2.97;;;0.43;;
49592;SDS011;35499;51.482;4.264;2023-03-11T15:39:56;2.55;;;0.80;;
49592;SDS011;35499;51.482;4.264;2023-03-11T15:42:33;2.90;;;0.63;;
49592;SDS011;35499;51.482;4.264;2023-03-11T15:45:14;3.73;;;1.17;;
49592;SDS011;35499;51.482;4.264;2023-03-11T15:47:43;4.20;;;0.63;;
49592;SDS011;35499;51.482;4.264;2023-03-11T15:50:21;4.13;;;0.77;;
49592;SDS011;35499;51.482;4.264;2023-03-11T15:52:52;5.82;;;0.80;;
49592;SDS011;35499;51.482;4.264;2023-03-11T15:55:19;3.90;;;1.05;;
49592;SDS011;35499;51.482;4.264;2023-03-11T15:57:45;4.90;;;1.02;;
49592;SDS011;35499;51.482;4.264;2023-03-11T16:00:15;4.32;;;1.23;;
49592;SDS011;35499;51.482;4.264;2023-03-11T16:02:46;4.82;;;1.02;;
49592;SDS011;35499;51.482;4.264;2023-03-11T16:05:14;5.93;;;1.27;;
49592;SDS011;35499;51.482;4.264;2023-03-11T16:07:44;5.80;;;1.30;;
49592;SDS011;35499;51.482;4.264;2023-03-11T16:10:11;3.72;;;1.05;;
49592;SDS011;35499;51.482;4.264;2023-03-11T16:12:38;5.18;;;1.17;;
49592;SDS011;35499;51.482;4.264;2023-03-11T16:15:04;5.18;;;1.55;;
49592;SDS011;35499;51.482;4.264;2023-03-11T16:17:30;4.85;;;1.73;;
49592;SDS011;35499;51.482;4.264;2023-03-11T16:19:56;6.43;;;1.10;;
49592;SDS011;35499;51.482;4.264;2023-03-11T16:22:23;3.80;;;1.60;;
49592;SDS011;35499;51.482;4.264;2023-03-11T16:24:53;5.75;;;1.50;;
49592;SDS011;35499;51.482;4.264;2023-03-11T16:27:19;3.60;;;1.43;;
49592;SDS011;35499;51.482;4.264;2023-03-11T16:29:44;3.77;;;1.37;;
49592;SDS011;35499;51.482;4.264;2023-03-11T16:32:10;4.97;;;1.75;;
49592;SDS011;35499;51.482;4.264;2023-03-11T16:34:37;5.82;;;2.00;;
49592;SDS011;35499;51.482;4.264;2023-03-11T16:37:06;7.72;;;1.70;;
49592;SDS011;35499;51.482;4.264;2023-03-11T16:39:32;3.10;;;1.13;;
49592;SDS011;35499;51.482;4.264;2023-03-11T16:41:58;3.63;;;1.58;;
49592;SDS011;35499;51.482;4.264;2023-03-11T16:44:24;3.60;;;1.42;;
49592;SDS011;35499;51.482;4.264;2023-03-11T16:46:49;4.93;;;1.40;;
49592;SDS011;35499;51.482;4.264;2023-03-11T16:49:14;6.07;;;2.17;;
49592;SDS011;35499;51.482;4.264;2023-03-11T16:51:40;4.23;;;1.33;;
49592;SDS011;35499;51.482;4.264;2023-03-11T16:54:05;5.20;;;1.63;;
49592;SDS011;35499;51.482;4.264;2023-03-11T16:56:31;3.50;;;1.40;;
49592;SDS011;35499;51.482;4.264;2023-03-11T16:58:56;7.07;;;1.53;;
49592;SDS011;35499;51.482;4.264;2023-03-11T17:01:21;4.18;;;1.83;;